Time;durP1;ratioP1;P1;durP2;ratioP2;P2;SDS_P1;SDS_P2;PMS_P1;PMS_P2;Temp;Humidity;BMP_temperature;BMP_pressure;BME280_temperature;BME280_humidity;BME280_pressure;Samples;Min_cycle;Max_cycle;Signal;HPM_P1;HPM_P2
2022/07/16 00:04:03;;;;;;;14.23;12.83;;;17.80;99.90;19.40;97210.00;;;;5047536;28;20192;-67
2022/07/16 00:06:51;;;;;;;13.03;11.70;;;17.80;99.90;19.30;97210.00;;;;5047049;28;20212;-67
2022/07/16 00:09:41;;;;;;;11.97;10.87;;;17.90;99.90;19.40;97206.00;;;;5048652;28;20676;-67
2022/07/16 00:12:30;;;;;;;13.77;11.80;;;17.90;99.90;19.30;97200.00;;;;5049101;28;20225;-67
2022/07/16 00:15:19;;;;;;;12.83;11.53;;;17.90;99.90;19.20;97203.00;;;;5044033;28;20593;-67
2022/07/16 00:21:13;;;;;;;12.43;10.87;;;17.80;99.90;19.10;97206.00;;;;5046124;28;20229;-67
2022/07/16 00:24:02;;;;;;;13.10;11.47;;;17.80;99.90;19.10;97196.00;;;;5042622;28;20955;-67
2022/07/16 00:26:53;;;;;;;12.13;11.03;;;17.80;99.90;19.00;97198.00;;;;5040120;28;20209;-67
2022/07/16 00:29:42;;;;;;;11.83;10.63;;;17.70;99.90;18.80;97213.00;;;;5047163;28;20220;-67
2022/07/16 00:32:31;;;;;;;11.63;10.50;;;17.70;99.90;18.50;97203.00;;;;5049094;28;20209;-67
2022/07/16 00:35:20;;;;;;;12.43;11.27;;;17.60;99.90;18.70;97197.00;;;;5049637;28;20197;-67
2022/07/16 00:38:08;;;;;;;11.67;10.40;;;17.60;99.90;18.80;97198.00;;;;5047462;28;20660;-67
2022/07/16 00:40:57;;;;;;;11.13;10.13;;;17.50;99.90;18.60;97198.00;;;;5045017;28;20230;-67
2022/07/16 00:43:50;;;;;;;11.57;10.27;;;17.50;99.90;18.50;97204.00;;;;5047686;28;20216;-66
2022/07/16 00:46:40;;;;;;;10.97;9.97;;;17.40;99.90;18.60;97196.00;;;;5043218;28;20735;-67
2022/07/16 00:49:29;;;;;;;10.83;9.67;;;17.40;99.90;18.80;97189.00;;;;5047870;28;20228;-67
2022/07/16 00:52:17;;;;;;;10.50;9.10;;;17.40;99.90;18.50;97205.00;;;;5037500;28;20193;-67
2022/07/16 00:55:08;;;;;;;10.83;9.77;;;17.40;99.90;18.50;97202.00;;;;5046547;28;20228;-67
2022/07/16 00:57:56;;;;;;;10.10;8.37;;;17.40;99.90;18.60;97195.00;;;;5045862;28;20201;-66
2022/07/16 01:00:47;;;;;;;8.73;8.03;;;17.30;99.90;18.40;97206.00;;;;5048792;28;20219;-67
2022/07/16 01:03:37;;;;;;;11.00;10.00;;;17.30;99.90;18.30;97201.00;;;;5044390;28;20791;-67
2022/07/16 01:06:27;;;;;;;9.57;8.67;;;17.30;99.90;18.70;97200.00;;;;5046665;28;20197;-67
2022/07/16 01:09:17;;;;;;;9.87;8.73;;;17.30;99.90;18.40;97203.00;;;;5045543;28;20212;-67
2022/07/16 01:12:07;;;;;;;9.03;7.67;;;17.30;99.90;18.30;97196.00;;;;5048884;28;20212;-67
2022/07/16 01:14:57;;;;;;;8.53;7.73;;;17.20;99.90;18.40;97192.00;;;;5047379;28;20228;-67
2022/07/16 01:17:47;;;;;;;9.27;8.40;;;17.20;99.90;18.40;97197.00;;;;5048582;28;20223;-67
2022/07/16 01:20:36;;;;;;;13.17;7.67;;;17.20;99.90;18.10;97193.00;;;;5046214;28;20228;-67
2022/07/16 01:23:27;;;;;;;8.97;8.10;;;17.10;99.90;18.20;97196.00;;;;5045983;28;20569;-67
2022/07/16 01:26:16;;;;;;;8.10;7.03;;;17.10;99.90;18.10;97202.00;;;;5047913;28;20215;-67
2022/07/16 01:29:05;;;;;;;8.00;7.30;;;17.00;99.90;17.70;97203.00;;;;5046521;28;20315;-67
2022/07/16 01:31:53;;;;;;;8.40;7.60;;;16.90;99.90;17.60;97202.00;;;;5047698;28;20204;-68
2022/07/16 01:34:42;;;;;;;10.00;8.10;;;16.80;99.90;17.80;97194.00;;;;5039701;28;20235;-67
2022/07/16 01:37:31;;;;;;;8.10;7.30;;;16.80;99.90;17.80;97192.00;;;;5046111;28;20212;-68
2022/07/16 01:40:21;;;;;;;11.73;8.70;;;16.70;99.90;17.70;97189.00;;;;5047754;28;20228;-66
2022/07/16 01:43:15;;;;;;;8.03;7.20;;;16.70;99.90;17.60;97199.00;;;;5047310;28;20204;-65
2022/07/16 01:46:05;;;;;;;10.63;8.20;;;16.60;99.90;17.30;97189.00;;;;5046493;28;20204;-67
2022/07/16 01:48:53;;;;;;;8.90;7.97;;;16.50;99.90;17.50;97194.00;;;;5045726;28;20204;-67
2022/07/16 01:51:42;;;;;;;8.57;7.77;;;16.50;99.90;17.50;97192.00;;;;5045919;28;20207;-67
2022/07/16 01:54:31;;;;;;;8.57;7.77;;;16.40;99.90;17.70;97194.00;;;;5046805;28;20231;-67
2022/07/16 01:57:22;;;;;;;6.93;6.37;;;16.40;99.90;17.70;97189.00;;;;5039661;28;20623;-66
2022/07/16 02:00:13;;;;;;;7.77;7.07;;;16.40;99.90;17.80;97190.00;;;;5051312;28;20224;-66
2022/07/16 02:03:01;;;;;;;7.90;7.20;;;16.40;99.90;17.60;97184.00;;;;5043408;28;20568;-66
2022/07/16 02:05:50;;;;;;;7.37;6.43;;;16.40;99.90;17.60;97175.00;;;;5047350;28;20223;-66
2022/07/16 02:08:40;;;;;;;8.67;7.10;;;16.40;99.90;17.70;97176.00;;;;5046070;28;20205;-66
2022/07/16 02:11:29;;;;;;;9.90;8.90;;;16.40;99.90;17.50;97168.00;;;;5047632;28;20678;-66
2022/07/16 02:14:19;;;;;;;11.57;7.63;;;16.40;99.90;17.50;97179.00;;;;5046263;28;20264;-67
2022/07/16 02:17:08;;;;;;;9.73;7.17;;;16.40;99.90;17.60;97172.00;;;;5046764;28;20208;-67
2022/07/16 02:19:56;;;;;;;10.00;8.47;;;16.30;99.90;17.50;97171.00;;;;5040956;28;20212;-66
2022/07/16 02:22:45;;;;;;;8.57;7.67;;;16.30;99.90;17.40;97172.00;;;;5045749;28;20213;-66
2022/07/16 02:25:34;;;;;;;8.47;7.57;;;16.30;99.90;17.50;97173.00;;;;5041803;28;20233;-66
2022/07/16 02:28:23;;;;;;;7.47;6.70;;;16.30;99.90;17.40;97173.00;;;;5045621;28;20203;-67
2022/07/16 02:31:13;;;;;;;9.03;8.13;;;16.20;99.90;17.20;97171.00;;;;5047666;28;20267;-66
2022/07/16 02:34:02;;;;;;;7.87;7.10;;;16.20;99.90;17.20;97169.00;;;;5049220;28;20207;-67
2022/07/16 02:36:51;;;;;;;8.53;7.60;;;16.20;99.90;16.80;97170.00;;;;5051260;28;20572;-67
2022/07/16 02:39:39;;;;;;;8.57;7.73;;;16.10;99.90;17.00;97166.00;;;;5044883;28;20769;-67
2022/07/16 02:42:28;;;;;;;8.97;7.30;;;16.00;99.90;17.20;97171.00;;;;5051282;28;20205;-67
2022/07/16 02:45:17;;;;;;;8.00;7.13;;;16.00;99.90;17.20;97168.00;;;;5045496;28;20688;-67
2022/07/16 02:48:09;;;;;;;8.23;6.70;;;16.00;99.90;17.20;97165.00;;;;5042802;28;20200;-66
2022/07/16 02:50:57;;;;;;;8.73;7.80;;;16.00;99.90;17.20;97163.00;;;;5050456;28;20216;-66
2022/07/16 02:53:46;;;;;;;8.67;7.30;;;15.90;99.90;17.10;97171.00;;;;5049727;28;20201;-66
2022/07/16 02:56:35;;;;;;;7.67;7.07;;;15.90;99.90;16.90;97163.00;;;;5050008;28;20235;-67
2022/07/16 02:59:24;;;;;;;10.43;7.60;;;15.90;99.90;17.00;97160.00;;;;5055320;28;20215;-66
2022/07/16 03:02:13;;;;;;;7.53;6.80;;;15.80;99.90;16.90;97162.00;;;;5048430;28;20208;-65
2022/07/16 03:05:03;;;;;;;8.87;7.90;;;15.80;99.90;17.00;97163.00;;;;5049786;28;20590;-66
2022/07/16 03:07:53;;;;;;;9.07;7.53;;;15.80;99.90;17.00;97168.00;;;;5042486;28;20211;-66
2022/07/16 03:10:42;;;;;;;8.57;7.77;;;15.70;99.90;17.00;97161.00;;;;5042772;28;20712;-66
2022/07/16 03:13:30;;;;;;;10.03;7.70;;;15.70;99.90;17.00;97160.00;;;;5049695;28;20205;-67
2022/07/16 03:16:19;;;;;;;8.63;7.73;;;15.70;99.90;16.80;97156.00;;;;5049094;28;20594;-66
2022/07/16 03:19:08;;;;;;;9.70;7.83;;;15.70;99.90;16.90;97159.00;;;;5046541;28;20728;-67
2022/07/16 03:21:58;;;;;;;8.03;7.20;;;15.70;99.90;17.10;97166.00;;;;5049719;28;20197;-66
2022/07/16 03:24:47;;;;;;;8.23;7.43;;;15.70;99.90;16.90;97163.00;;;;5044974;28;20228;-66
2022/07/16 03:27:36;;;;;;;7.60;6.93;;;15.70;99.90;16.80;97170.00;;;;5049179;28;20208;-66
2022/07/16 03:30:25;;;;;;;9.10;8.20;;;15.60;99.90;16.80;97169.00;;;;5041549;28;20213;-66
2022/07/16 03:33:13;;;;;;;7.57;6.80;;;15.60;99.90;16.70;97168.00;;;;5039444;28;20208;-66
2022/07/16 03:36:02;;;;;;;8.00;7.20;;;15.60;99.90;16.70;97166.00;;;;5048698;28;20672;-66
2022/07/16 03:39:02;;;;;;;8.80;7.90;;;15.50;99.90;16.40;97159.00;;;;5049581;28;20203;-66
2022/07/16 03:41:51;;;;;;;8.30;7.50;;;15.50;99.90;16.40;97162.00;;;;5049162;28;20208;-67
2022/07/16 03:44:40;;;;;;;8.47;7.70;;;15.40;99.90;16.70;97168.00;;;;5048061;28;20606;-66
2022/07/16 03:47:28;;;;;;;10.57;8.13;;;15.50;99.90;16.90;97167.00;;;;5045491;28;20288;-67
2022/07/16 03:50:17;;;;;;;7.97;7.30;;;15.50;99.90;17.00;97159.00;;;;5049088;28;20224;-67
2022/07/16 03:53:06;;;;;;;8.97;8.07;;;15.60;99.90;16.90;97164.00;;;;5049114;28;20201;-66
2022/07/16 03:55:56;;;;;;;8.73;7.93;;;15.50;99.90;16.70;97159.00;;;;5040154;28;20197;-66
2022/07/16 03:58:45;;;;;;;8.50;7.70;;;15.50;99.90;16.60;97163.00;;;;5053370;28;20211;-67
2022/07/16 04:01:34;;;;;;;8.23;7.07;;;15.50;99.90;16.60;97157.00;;;;5048649;28;20197;-67
2022/07/16 04:04:22;;;;;;;7.97;7.13;;;15.50;99.90;16.70;97163.00;;;;5046645;28;20196;-66
2022/07/16 04:07:11;;;;;;;8.40;7.70;;;15.50;99.90;16.50;97156.00;;;;5037192;28;20672;-67
2022/07/16 04:10:00;;;;;;;7.73;7.03;;;15.60;99.90;16.70;97160.00;;;;5050231;28;20247;-66
2022/07/16 04:12:50;;;;;;;7.50;6.83;;;15.50;99.90;17.00;97154.00;;;;5046517;28;20204;-66
2022/07/16 04:15:39;;;;;;;7.60;6.83;;;15.60;99.90;17.10;97155.00;;;;5049482;28;20299;-66
2022/07/16 04:18:27;;;;;;;11.17;7.87;;;15.70;99.90;17.20;97161.00;;;;5048354;28;20204;-66
2022/07/16 04:21:16;;;;;;;8.97;7.93;;;15.70;99.90;17.20;97163.00;;;;5047678;28;20231;-66
2022/07/16 04:24:06;;;;;;;10.07;8.53;;;15.80;99.90;17.00;97160.00;;;;5048789;28;20208;-66
2022/07/16 04:26:54;;;;;;;8.87;7.97;;;15.80;99.90;17.20;97157.00;;;;5049307;28;20656;-66
2022/07/16 04:29:44;;;;;;;8.63;7.80;;;15.80;99.90;17.00;97159.00;;;;5045916;28;20281;-66
2022/07/16 04:32:33;;;;;;;8.70;7.87;;;15.80;99.90;17.20;97152.00;;;;5047339;28;20200;-66
2022/07/16 04:35:22;;;;;;;8.63;7.73;;;15.80;99.90;17.20;97164.00;;;;5050342;28;20204;-66
2022/07/16 04:38:11;;;;;;;7.97;7.27;;;15.80;99.90;17.20;97158.00;;;;5049611;28;20219;-66
2022/07/16 04:41:00;;;;;;;8.43;7.70;;;15.90;99.90;17.30;97158.00;;;;5035654;28;20708;-66
2022/07/16 04:43:48;;;;;;;7.37;6.73;;;15.90;99.90;17.40;97159.00;;;;5048446;28;20580;-67
2022/07/16 04:46:38;;;;;;;7.93;7.23;;;16.00;99.90;17.50;97160.00;;;;5048673;28;20594;-66
2022/07/16 04:49:27;;;;;;;8.40;7.60;;;16.00;99.90;17.50;97164.00;;;;5036710;28;20224;-67
2022/07/16 04:52:16;;;;;;;8.40;7.70;;;16.10;99.90;17.70;97163.00;;;;5047930;28;20889;-66
2022/07/16 04:55:06;;;;;;;7.53;6.83;;;16.10;99.90;17.90;97160.00;;;;5048123;28;20213;-66
2022/07/16 04:57:55;;;;;;;10.33;7.37;;;16.20;99.90;18.10;97170.00;;;;5048030;28;20215;-66
2022/07/16 05:00:45;;;;;;;8.87;7.00;;;16.30;99.90;18.20;97164.00;;;;5043484;28;20251;-66
2022/07/16 05:03:35;;;;;;;8.10;6.80;;;16.50;99.90;18.40;97160.00;;;;5046178;28;20199;-67
2022/07/16 05:06:24;;;;;;;7.70;7.00;;;16.60;99.90;18.50;97162.00;;;;5048178;28;20592;-66
2022/07/16 05:09:13;;;;;;;7.67;6.97;;;16.70;99.90;18.60;97163.00;;;;5047051;28;20208;-66
2022/07/16 05:12:02;;;;;;;9.30;6.43;;;16.80;99.90;18.90;97174.00;;;;5039312;28;20600;-66
2022/07/16 05:14:50;;;;;;;9.23;6.27;;;17.00;99.90;19.10;97170.00;;;;5047929;28;20204;-66
2022/07/16 05:17:39;;;;;;;6.37;5.50;;;17.10;99.90;19.30;97158.00;;;;5046346;28;20201;-66
2022/07/16 05:20:29;;;;;;;7.40;6.37;;;17.30;99.90;19.60;97155.00;;;;5048507;28;20232;-67
2022/07/16 05:23:18;;;;;;;7.23;6.53;;;17.50;99.90;19.90;97163.00;;;;5048463;28;20196;-66
2022/07/16 05:26:07;;;;;;;8.40;7.50;;;17.70;99.90;20.10;97156.00;;;;5049363;28;20235;-66
2022/07/16 05:28:56;;;;;;;6.40;5.80;;;17.90;99.90;20.40;97163.00;;;;5047874;28;20208;-67
2022/07/16 05:31:45;;;;;;;8.03;6.77;;;18.10;99.90;20.40;97161.00;;;;5048423;28;20223;-66
2022/07/16 05:34:33;;;;;;;7.97;6.83;;;18.30;99.90;20.30;97163.00;;;;5047466;28;20208;-67
2022/07/16 05:37:23;;;;;;;8.47;7.67;;;18.50;99.90;20.40;97175.00;;;;5047486;28;20219;-67
2022/07/16 05:40:14;;;;;;;7.57;6.70;;;18.60;99.90;20.10;97176.00;;;;5048458;28;20212;-67
2022/07/16 05:43:03;;;;;;;7.20;6.30;;;18.60;99.90;20.30;97175.00;;;;5048022;28;20276;-67
2022/07/16 05:45:52;;;;;;;7.83;7.03;;;18.60;99.90;20.40;97186.00;;;;5048205;28;20228;-67
2022/07/16 05:48:40;;;;;;;8.03;7.33;;;18.60;99.90;20.50;97194.00;;;;5047285;28;20201;-67
2022/07/16 05:51:29;;;;;;;6.87;6.17;;;18.70;99.90;20.50;97185.00;;;;5047117;28;20223;-67
2022/07/16 05:54:19;;;;;;;12.23;7.27;;;18.70;99.90;20.30;97188.00;;;;5047130;28;20580;-67
2022/07/16 05:57:08;;;;;;;9.20;6.10;;;18.70;99.90;20.40;97188.00;;;;5046522;28;20215;-67
2022/07/16 05:59:57;;;;;;;10.43;7.13;;;18.70;99.90;20.50;97197.00;;;;5045627;28;20655;-67
2022/07/16 06:02:46;;;;;;;15.77;8.07;;;18.70;99.90;20.40;97191.00;;;;5048119;28;20208;-67
2022/07/16 06:05:35;;;;;;;7.30;6.60;;;18.70;99.90;20.30;97194.00;;;;5049241;28;20203;-67
2022/07/16 06:08:23;;;;;;;9.03;7.50;;;18.70;99.90;20.30;97188.00;;;;5051438;28;20241;-67
2022/07/16 06:11:13;;;;;;;7.77;7.03;;;18.70;99.90;19.90;97185.00;;;;5051693;28;20239;-67
2022/07/16 06:14:04;;;;;;;9.10;7.77;;;18.70;99.90;19.60;97191.00;;;;5052361;28;20291;-67
2022/07/16 06:16:53;;;;;;;8.10;7.30;;;18.60;99.90;19.90;97195.00;;;;5052248;28;20208;-67
2022/07/16 06:19:42;;;;;;;9.47;7.40;;;18.60;99.90;19.80;97192.00;;;;5043988;28;20224;-67
2022/07/16 06:22:31;;;;;;;8.90;7.90;;;18.50;99.90;19.70;97187.00;;;;5046836;28;20208;-67
2022/07/16 06:25:19;;;;;;;10.57;8.00;;;18.50;99.90;19.90;97188.00;;;;5052332;28;20208;-67
2022/07/16 06:28:09;;;;;;;10.03;9.07;;;18.50;99.90;20.20;97187.00;;;;5049711;28;20226;-67
2022/07/16 06:30:58;;;;;;;8.10;7.23;;;18.50;99.90;20.10;97184.00;;;;5048259;28;20274;-67
2022/07/16 06:33:47;;;;;;;7.90;6.93;;;18.50;99.90;20.30;97193.00;;;;5051319;28;20209;-67
2022/07/16 06:36:36;;;;;;;8.97;8.07;;;18.60;99.90;20.60;97184.00;;;;5051355;28;20204;-67
2022/07/16 06:39:24;;;;;;;10.23;9.00;;;18.70;99.90;20.60;97184.00;;;;5050566;28;20235;-67
2022/07/16 06:42:13;;;;;;;9.53;7.37;;;18.80;99.90;20.30;97184.00;;;;5049064;28;20200;-67
2022/07/16 06:45:04;;;;;;;8.47;7.70;;;18.80;99.90;20.60;97186.00;;;;5052201;28;20212;-67
2022/07/16 06:47:52;;;;;;;9.47;8.20;;;18.90;99.90;20.70;97178.00;;;;5050856;28;20339;-67
2022/07/16 06:50:41;;;;;;;10.20;9.20;;;19.00;99.90;20.50;97183.00;;;;5051816;28;20227;-67
2022/07/16 06:53:30;;;;;;;8.90;8.07;;;19.00;99.90;20.80;97177.00;;;;5050095;28;20557;-67
2022/07/16 06:56:19;;;;;;;9.50;8.60;;;19.10;99.90;20.90;97185.00;;;;5048030;28;20875;-67
2022/07/16 06:59:07;;;;;;;9.77;8.80;;;19.20;99.90;20.80;97183.00;;;;5050099;28;20266;-67
2022/07/16 07:01:57;;;;;;;13.67;8.87;;;19.20;99.90;20.70;97174.00;;;;5043881;28;20576;-67
2022/07/16 07:04:46;;;;;;;9.90;8.90;;;19.20;99.90;21.20;97182.00;;;;5050074;28;20200;-67
2022/07/16 07:07:35;;;;;;;10.37;9.20;;;19.30;99.90;21.50;97176.00;;;;5050504;28;20325;-67
2022/07/16 07:10:24;;;;;;;10.17;9.17;;;19.40;99.90;21.80;97171.00;;;;5050062;28;20734;-67
2022/07/16 07:13:12;;;;;;;10.50;9.50;;;19.60;99.90;22.00;97176.00;;;;5049346;28;20668;-67
2022/07/16 07:16:01;;;;;;;10.83;9.30;;;19.80;99.90;22.20;97171.00;;;;5054167;28;20337;-66
2022/07/16 07:18:51;;;;;;;10.10;9.10;;;20.00;99.90;22.50;97174.00;;;;5046959;28;20569;-67
2022/07/16 07:21:40;;;;;;;10.77;9.67;;;20.20;99.90;22.70;97179.00;;;;5049968;28;20212;-67
2022/07/16 07:24:29;;;;;;;12.93;9.13;;;20.50;99.90;22.70;97176.00;;;;5049448;28;20205;-67
2022/07/16 07:27:32;;;;;;;11.60;9.60;;;20.60;99.90;22.70;97170.00;;;;5048302;28;20233;-67
2022/07/16 07:30:21;;;;;;;10.70;8.50;;;20.80;99.90;23.00;97179.00;;;;5053340;28;20221;-67
2022/07/16 07:33:10;;;;;;;12.70;10.10;;;20.90;99.90;22.80;97172.00;;;;5050768;28;20204;-66
2022/07/16 07:36:00;;;;;;;10.17;9.17;;;21.00;99.90;22.80;97174.00;;;;5061416;28;20200;-67
2022/07/16 07:38:49;;;;;;;10.83;8.77;;;21.00;99.90;22.60;97171.00;;;;5045634;28;20208;-67
2022/07/16 07:41:38;;;;;;;10.20;9.00;;;21.10;99.90;22.40;97168.00;;;;5044476;28;20209;-67
2022/07/16 07:44:27;;;;;;;10.10;8.63;;;21.10;99.90;23.00;97159.00;;;;5052204;28;20208;-67
2022/07/16 07:47:16;;;;;;;11.10;8.47;;;21.10;99.90;23.30;97166.00;;;;5062770;28;20223;-67
2022/07/16 07:50:06;;;;;;;9.37;8.23;;;21.20;99.90;23.20;97150.00;;;;5052398;28;20225;-67
2022/07/16 07:52:56;;;;;;;8.43;7.13;;;21.30;99.90;23.30;97154.00;;;;5040855;28;20204;-67
2022/07/16 07:55:45;;;;;;;8.33;7.03;;;21.40;99.90;23.70;97167.00;;;;5052374;28;20212;-67
2022/07/16 07:58:34;;;;;;;8.53;7.27;;;21.60;99.90;23.80;97158.00;;;;5034641;28;20200;-67
2022/07/16 08:01:23;;;;;;;8.87;7.93;;;21.70;99.90;23.80;97158.00;;;;5052000;28;20224;-67
2022/07/16 08:04:12;;;;;;;8.00;6.97;;;21.80;99.90;23.80;97137.00;;;;5033338;28;20707;-67
2022/07/16 08:07:01;;;;;;;11.83;8.33;;;21.90;99.90;24.10;97144.00;;;;5044968;28;20217;-67
2022/07/16 08:09:51;;;;;;;7.53;6.83;;;22.10;99.90;23.90;97149.00;;;;5044993;28;20609;-67
2022/07/16 08:12:41;;;;;;;7.97;7.07;;;22.30;99.90;24.10;97155.00;;;;5037805;28;20707;-67
2022/07/16 08:15:30;;;;;;;14.37;8.57;;;22.30;99.90;24.60;97132.00;;;;5049958;28;20215;-67
2022/07/16 08:18:19;;;;;;;9.50;7.03;;;22.40;99.90;24.70;97146.00;;;;5051918;28;20706;-67
2022/07/16 08:21:08;;;;;;;13.03;7.53;;;22.60;99.90;25.30;97140.00;;;;5047249;28;20220;-66
2022/07/16 08:27:04;;;;;;;8.57;7.00;;;23.10;99.90;24.80;97132.00;;;;5054634;28;20232;-67
2022/07/16 08:29:53;;;;;;;12.13;8.00;;;23.30;99.90;24.30;97135.00;;;;5052659;28;20232;-67
2022/07/16 08:32:41;;;;;;;8.80;8.00;;;23.30;99.90;24.30;97131.00;;;;5048612;28;20211;-67
2022/07/16 08:35:31;;;;;;;15.67;8.53;;;23.30;99.90;23.60;97143.00;;;;5047081;28;20255;-67
2022/07/16 08:38:19;;;;;;;7.93;6.97;;;22.90;99.90;23.90;97134.00;;;;5047188;28;20196;-66
2022/07/16 08:41:10;;;;;;;7.63;6.93;;;22.80;99.90;24.80;97132.00;;;;5052965;28;20220;-67
2022/07/16 08:44:00;;;;;;;9.13;7.47;;;22.90;99.90;24.90;97130.00;;;;5064544;28;20593;-67
2022/07/16 08:46:51;;;;;;;9.53;7.40;;;23.00;99.90;24.00;97117.00;;;;5047416;28;20200;-67
2022/07/16 08:49:40;;;;;;;11.73;9.43;;;23.00;99.90;24.10;97124.00;;;;5050723;28;20696;-67
2022/07/16 08:52:30;;;;;;;8.57;7.60;;;22.90;99.90;24.00;97136.00;;;;5045239;28;20605;-66
2022/07/16 08:55:20;;;;;;;11.33;7.80;;;22.90;99.90;23.90;97136.00;;;;5048985;28;20199;-68
2022/07/16 08:58:09;;;;;;;9.63;8.30;;;22.80;99.90;23.10;97143.00;;;;5037898;28;20208;-68
2022/07/16 09:01:00;;;;;;;8.93;7.80;;;22.90;99.90;23.30;97120.00;;;;5049040;28;20742;-67
2022/07/16 09:03:49;;;;;;;10.77;7.70;;;22.40;99.90;23.90;97120.00;;;;5049188;28;20208;-67
2022/07/16 09:06:38;;;;;;;13.03;7.47;;;22.50;99.90;24.20;97126.00;;;;5051247;28;20215;-68
2022/07/16 09:09:26;;;;;;;10.17;7.93;;;22.60;99.90;24.20;97117.00;;;;5038718;28;20232;-67
2022/07/16 09:12:34;;;;;;;10.50;8.17;;;22.80;99.90;25.00;97117.00;;;;5039174;28;20581;-66
2022/07/16 09:15:27;;;;;;;8.40;7.60;;;23.00;99.90;25.30;97110.00;;;;5046556;28;20205;-67
2022/07/16 09:18:21;;;;;;;8.67;7.87;;;23.30;99.90;24.70;97106.00;;;;5043826;28;20949;-68
2022/07/16 09:21:09;;;;;;;8.53;7.70;;;23.40;99.90;25.60;97108.00;;;;5045354;28;20225;-67
2022/07/16 09:23:58;;;;;;;9.03;8.13;;;23.60;99.90;25.60;97105.00;;;;5042534;28;20200;-67
2022/07/16 09:27:02;;;;;;;10.30;8.33;;;23.70;99.90;26.70;97102.00;;;;5047105;28;20204;-67
2022/07/16 09:29:52;;;;;;;11.53;7.50;;;24.10;99.90;27.10;97105.00;;;;5046127;28;20231;-67
2022/07/16 09:32:41;;;;;;;8.47;7.67;;;24.50;99.90;27.20;97100.00;;;;5046959;28;20205;-67
2022/07/16 09:35:31;;;;;;;8.57;7.40;;;24.70;99.90;27.70;97128.00;;;;5042628;28;20203;-67
2022/07/16 09:38:20;;;;;;;8.83;7.83;;;25.10;99.90;27.10;97119.00;;;;5047991;28;20200;-67
2022/07/16 09:41:13;;;;;;;8.10;7.30;;;25.10;99.90;27.40;97122.00;;;;5050761;28;20230;-67
2022/07/16 09:44:02;;;;;;;7.77;6.80;;;25.20;99.90;26.80;97105.00;;;;5053137;28;20223;-67
2022/07/16 09:47:04;;;;;;;8.00;7.30;;;25.10;99.90;26.70;97116.00;;;;5039795;28;20212;-68
2022/07/16 09:49:54;;;;;;;9.57;7.33;;;25.00;99.90;27.20;97078.00;;;;5045728;28;20226;-67
2022/07/16 09:52:44;;;;;;;7.60;6.83;;;25.10;99.90;27.90;97076.00;;;;5047239;28;20210;-67
2022/07/16 09:55:33;;;;;;;7.30;6.60;;;25.30;99.90;27.80;97069.00;;;;5044980;28;20211;-67
2022/07/16 09:58:22;;;;;;;7.63;6.93;;;25.60;99.90;28.30;97066.00;;;;5040566;28;20497;-67
2022/07/16 10:01:10;;;;;;;7.43;6.83;;;25.90;99.90;29.00;97081.00;;;;5047238;28;20216;-67
2022/07/16 10:03:59;;;;;;;7.60;6.90;;;26.20;99.90;28.80;97064.00;;;;5047096;28;20205;-67
2022/07/16 10:06:48;;;;;;;7.20;6.60;;;26.40;99.90;29.40;97059.00;;;;5045688;28;20696;-67
2022/07/16 10:09:38;;;;;;;6.77;6.07;;;26.70;99.90;30.00;97061.00;;;;5047024;28;20239;-68
2022/07/16 10:12:29;;;;;;;6.50;5.77;;;27.00;99.90;30.10;97056.00;;;;5048660;28;20225;-68
2022/07/16 10:15:17;;;;;;;7.10;6.40;;;27.40;99.90;29.70;97055.00;;;;5050626;28;20587;-67
2022/07/16 10:18:32;;;;;;;6.83;6.13;;;27.60;99.90;29.80;97052.00;;;;5047741;28;20199;-68
2022/07/16 10:21:24;;;;;;;6.60;6.10;;;27.60;99.90;30.30;97052.00;;;;5048818;28;20227;-68
2022/07/16 10:24:14;;;;;;;6.53;5.93;;;27.80;99.90;30.60;97041.00;;;;5044444;28;20212;-68
2022/07/16 10:30:16;;;;;;;5.90;5.40;;;28.10;99.90;29.90;97038.00;;;;5101263;27;20667;-68
2022/07/16 10:33:16;;;;;;;7.10;5.40;;;28.10;99.90;30.50;97038.00;;;;5115700;28;20197;-68
2022/07/16 10:36:06;;;;;;;5.37;4.97;;;28.20;99.90;30.80;97033.00;;;;5123816;28;20192;-68
2022/07/16 10:39:06;;;;;;;5.67;5.17;;;28.40;99.90;30.70;97029.00;;;;5122261;28;20671;-68
2022/07/16 10:41:57;;;;;;;6.53;5.83;;;28.50;99.90;30.80;97034.00;;;;5118552;28;20205;-68
2022/07/16 10:44:49;;;;;;;7.00;4.73;;;28.60;99.90;31.40;97031.00;;;;5132124;27;20220;-69
2022/07/16 10:47:57;;;;;;;7.50;5.13;;;28.80;99.90;28.00;97066.00;;;;5121908;28;20223;-68
2022/07/16 10:51:18;;;;;;;6.37;4.60;;;28.50;99.90;27.70;97018.00;;;;5122963;28;20219;-69
2022/07/16 10:54:22;;;;;;;6.33;4.73;;;27.40;99.90;29.30;97011.00;;;;5123730;28;20221;-68
2022/07/16 10:57:12;;;;;;;6.37;5.07;;;27.40;99.90;30.40;97009.00;;;;5120754;27;20772;-68
2022/07/16 11:00:02;;;;;;;10.00;6.40;;;27.70;99.90;29.90;97002.00;;;;5129288;27;20229;-67
2022/07/16 11:03:00;;;;;;;5.23;4.73;;;27.90;99.90;30.50;96993.00;;;;5128476;27;20199;-68
2022/07/16 11:06:03;;;;;;;5.53;5.03;;;28.20;99.90;28.30;96971.00;;;;5118294;28;20192;-68
2022/07/16 11:08:53;;;;;;;7.90;5.00;;;28.20;99.90;30.60;96989.00;;;;5105452;28;20227;-68
2022/07/16 11:11:43;;;;;;;5.20;4.67;;;28.30;99.90;30.70;96989.00;;;;5104821;28;20677;-68
2022/07/16 11:14:31;;;;;;;6.63;5.53;;;28.50;99.90;31.10;96989.00;;;;5108089;28;20202;-67
2022/07/16 11:17:22;;;;;;;6.10;5.30;;;28.70;99.90;30.00;96983.00;;;;5107874;28;20201;-68
2022/07/16 11:20:13;;;;;;;6.43;5.30;;;28.40;99.90;30.10;97048.00;;;;5117672;28;20224;-67
2022/07/16 11:23:05;;;;;;;6.20;5.60;;;28.40;99.90;29.80;96978.00;;;;5124698;28;20210;-67
2022/07/16 11:25:56;;;;;;;6.07;5.20;;;28.20;99.90;30.80;96983.00;;;;5124985;28;20207;-67
2022/07/16 11:28:52;;;;;;;6.10;5.57;;;28.40;99.90;30.50;96993.00;;;;5126745;27;20221;-67
2022/07/16 11:31:40;;;;;;;5.47;4.50;;;28.70;99.90;30.70;96996.00;;;;5114644;27;20200;-67
2022/07/16 11:34:33;;;;;;;4.50;4.20;;;28.80;99.90;29.80;96982.00;;;;5118741;27;20573;-67
2022/07/16 11:37:23;;;;;;;7.13;5.83;;;28.60;99.90;29.30;96971.00;;;;5112265;28;20199;-67
2022/07/16 11:40:12;;;;;;;4.90;4.47;;;28.40;99.90;29.00;96980.00;;;;5098881;28;20225;-67
2022/07/16 11:43:02;;;;;;;4.70;4.20;;;28.30;99.90;28.30;96971.00;;;;5101127;27;20577;-69
2022/07/16 11:45:50;;;;;;;7.27;5.00;;;28.10;99.90;29.50;96987.00;;;;5116437;27;20639;-68
2022/07/16 11:48:40;;;;;;;5.70;5.23;;;27.90;99.90;29.60;96983.00;;;;5107512;27;20611;-67
2022/07/16 11:51:29;;;;;;;5.87;5.37;;;28.10;99.90;31.00;96981.00;;;;5109067;28;20224;-68
2022/07/16 11:54:19;;;;;;;4.83;4.53;;;28.50;99.90;29.00;96975.00;;;;5109821;28;20205;-66
2022/07/16 11:57:11;;;;;;;5.20;4.80;;;28.50;99.90;28.10;96972.00;;;;5090830;28;20202;-67
2022/07/16 11:59:59;;;;;;;5.27;4.87;;;28.10;99.80;28.80;96989.00;;;;5102190;28;20226;-68
2022/07/16 12:02:57;;;;;;;5.67;4.90;;;27.90;99.90;27.90;97040.00;;;;5107848;27;20226;-67
2022/07/16 12:05:46;;;;;;;4.87;4.53;;;27.40;99.90;27.50;96963.00;;;;5105621;28;20280;-67
2022/07/16 12:08:36;;;;;;;5.23;4.83;;;27.00;99.90;29.50;96970.00;;;;5106136;27;20225;-67
2022/07/16 12:11:35;;;;;;;5.87;5.37;;;27.30;99.90;30.30;96970.00;;;;5105844;27;20676;-67
2022/07/16 12:14:50;;;;;;;5.77;5.27;;;27.80;99.90;30.30;96977.00;;;;5101322;28;20204;-67
2022/07/16 12:18:11;;;;;;;4.63;4.23;;;28.30;99.90;30.10;96970.00;;;;5104790;28;20196;-68
2022/07/16 12:21:27;;;;;;;5.60;5.10;;;28.50;99.20;29.30;96961.00;;;;5105365;28;20212;-67
2022/07/16 12:24:16;;;;;;;5.17;4.17;;;28.50;99.50;28.90;96941.00;;;;5107564;28;20444;-69
2022/07/16 12:27:06;;;;;;;4.80;4.30;;;28.40;99.40;29.70;96955.00;;;;5109058;27;20192;-68
2022/07/16 12:30:04;;;;;;;5.53;4.97;;;28.20;99.40;29.10;96964.00;;;;5109943;27;20225;-67
2022/07/16 12:32:53;;;;;;;5.93;4.67;;;28.20;99.40;30.70;96961.00;;;;5108201;27;20203;-67
2022/07/16 12:35:46;;;;;;;5.07;4.67;;;28.50;99.50;30.30;96962.00;;;;5104897;27;20909;-68
2022/07/16 12:38:49;;;;;;;5.17;4.50;;;28.70;98.50;29.50;97026.00;;;;5106303;27;20197;-68
2022/07/16 12:41:40;;;;;;;5.17;4.70;;;28.60;99.00;28.20;97032.00;;;;5109498;27;20200;-68
2022/07/16 12:44:30;;;;;;;5.10;4.60;;;27.80;98.20;30.00;96960.00;;;;5103307;28;20207;-67
2022/07/16 12:47:19;;;;;;;5.30;4.20;;;28.00;99.50;31.00;96961.00;;;;5108801;27;20199;-68